Time;durP1;ratioP1;P1;durP2;ratioP2;P2;SDS_P1;SDS_P2;PMS_P1;PMS_P2;Temp;Humidity;BMP_temperature;BMP_pressure;BME280_temperature;BME280_humidity;BME280_pressure;Samples;Min_cycle;Max_cycle;Signal;HPM_P1;HPM_P2
2022/11/08 00:03:46;;;;;;;10.75;1.83;;;;;;;;;;4990496;28;20395;-68
2022/11/08 00:14:23;;;;;;;9.30;1.67;;;;;;;;;;4985339;28;20109;-68
2022/11/08 00:16:48;;;;;;;7.77;2.87;;;;;;;;;;4987086;28;20117;-67
2022/11/08 00:19:14;;;;;;;5.22;1.58;;;;;;;;;;4988151;28;20359;-68
2022/11/08 00:21:39;;;;;;;9.53;1.83;;;;;;;;;;4992309;28;20106;-69
2022/11/08 00:24:04;;;;;;;7.83;2.33;;;;;;;;;;4981401;28;20266;-67
2022/11/08 00:26:30;;;;;;;10.00;1.70;;;;;;;;;;4982626;28;20305;-67
2022/11/08 00:28:55;;;;;;;6.18;2.30;;;;;;;;;;4984710;28;20022;-68
2022/11/08 00:31:20;;;;;;;13.20;3.07;;;;;;;;;;4986132;28;20033;-67
2022/11/08 00:33:45;;;;;;;10.53;2.93;;;;;;;;;;4986133;28;20277;-67
2022/11/08 00:36:10;;;;;;;7.38;2.10;;;;;;;;;;4989136;28;20356;-69
2022/11/08 00:38:39;;;;;;;3.77;1.63;;;;;;;;;;4983044;28;20022;-68
2022/11/08 00:41:04;;;;;;;7.97;3.20;;;;;;;;;;4990813;28;20309;-68
2022/11/08 00:43:29;;;;;;;3.37;1.10;;;;;;;;;;4986288;28;20054;-68
2022/11/08 00:45:54;;;;;;;3.70;1.90;;;;;;;;;;4986719;28;20301;-69
2022/11/08 00:48:20;;;;;;;9.83;2.07;;;;;;;;;;4991129;28;20304;-68
2022/11/08 00:50:45;;;;;;;6.97;2.80;;;;;;;;;;4990553;28;20889;-68
2022/11/08 00:53:10;;;;;;;4.70;2.17;;;;;;;;;;4992315;28;20277;-69
2022/11/08 00:55:35;;;;;;;7.33;2.13;;;;;;;;;;4982985;28;20645;-68
2022/11/08 00:58:00;;;;;;;7.22;1.80;;;;;;;;;;4981932;28;20329;-68
2022/11/08 01:00:26;;;;;;;3.73;1.67;;;;;;;;;;4991547;28;20034;-67
2022/11/08 01:03:17;;;;;;;10.82;1.90;;;;;;;;;;4988625;28;20284;-68
2022/11/08 01:05:36;;;;;;;5.57;1.67;;;;;;;;;;4989546;28;20092;-69
2022/11/08 01:08:01;;;;;;;10.13;2.38;;;;;;;;;;4985159;28;21270;-68
2022/11/08 01:10:27;;;;;;;2.42;1.35;;;;;;;;;;4987166;28;20367;-69
2022/11/08 01:12:52;;;;;;;9.50;1.13;;;;;;;;;;4986549;28;20471;-67
2022/11/08 01:15:17;;;;;;;14.20;2.20;;;;;;;;;;4982418;28;20316;-68
2022/11/08 01:17:42;;;;;;;2.10;1.23;;;;;;;;;;4978635;28;20705;-68
2022/11/08 01:20:07;;;;;;;6.63;2.37;;;;;;;;;;4987189;28;20356;-67
2022/11/08 01:22:33;;;;;;;9.75;2.28;;;;;;;;;;4989085;28;20273;-67
2022/11/08 01:24:58;;;;;;;7.83;2.17;;;;;;;;;;4986979;28;20102;-69
2022/11/08 01:27:23;;;;;;;11.20;2.08;;;;;;;;;;4985534;28;20276;-68
2022/11/08 01:29:48;;;;;;;11.20;2.70;;;;;;;;;;4985147;28;20018;-69
2022/11/08 01:32:13;;;;;;;4.67;1.70;;;;;;;;;;4989159;28;20643;-69
2022/11/08 01:34:38;;;;;;;10.63;2.45;;;;;;;;;;4987904;28;20326;-68
2022/11/08 01:37:03;;;;;;;14.80;2.50;;;;;;;;;;4987127;28;20073;-69
2022/11/08 01:39:31;;;;;;;13.97;1.67;;;;;;;;;;4986597;28;20286;-68
2022/11/08 01:41:56;;;;;;;9.10;1.77;;;;;;;;;;4985874;28;20474;-68
2022/11/08 01:44:22;;;;;;;12.80;1.83;;;;;;;;;;4987715;28;20467;-67
2022/11/08 01:46:47;;;;;;;9.80;2.37;;;;;;;;;;4988623;28;20277;-67
2022/11/08 01:49:31;;;;;;;5.93;1.73;;;;;;;;;;4986038;28;20769;-68
2022/11/08 01:52:02;;;;;;;11.30;2.40;;;;;;;;;;4984153;28;20093;-68
2022/11/08 01:54:38;;;;;;;11.85;2.13;;;;;;;;;;4985601;28;20452;-68
2022/11/08 01:57:05;;;;;;;5.13;1.42;;;;;;;;;;4982520;28;20019;-68
2022/11/08 01:59:31;;;;;;;2.65;0.80;;;;;;;;;;4992293;28;20026;-68
2022/11/08 02:01:57;;;;;;;11.80;1.65;;;;;;;;;;4996585;28;20034;-67
2022/11/08 02:04:22;;;;;;;4.35;1.65;;;;;;;;;;4990877;28;20026;-68
2022/11/08 02:06:48;;;;;;;3.03;1.40;;;;;;;;;;4986537;28;20030;-67
2022/11/08 02:09:15;;;;;;;3.88;1.05;;;;;;;;;;4986009;28;20506;-68
2022/11/08 02:11:41;;;;;;;8.07;1.50;;;;;;;;;;4990057;28;20101;-68
2022/11/08 02:14:06;;;;;;;6.75;1.50;;;;;;;;;;4996377;28;20113;-67
2022/11/08 02:16:32;;;;;;;19.40;1.95;;;;;;;;;;4982885;28;20101;-67
2022/11/08 02:18:57;;;;;;;2.53;1.17;;;;;;;;;;4989042;28;20138;-68
2022/11/08 02:21:41;;;;;;;6.25;1.95;;;;;;;;;;4990811;28;20041;-67
2022/11/08 02:24:08;;;;;;;11.43;1.65;;;;;;;;;;4983456;28;20029;-68
2022/11/08 02:26:34;;;;;;;4.63;1.50;;;;;;;;;;4989930;28;20041;-68
2022/11/08 02:29:19;;;;;;;5.10;1.13;;;;;;;;;;4991075;28;20507;-68
2022/11/08 02:31:44;;;;;;;3.60;1.00;;;;;;;;;;4992174;28;20505;-68
2022/11/08 02:34:10;;;;;;;3.33;1.10;;;;;;;;;;4989523;28;20034;-68
2022/11/08 02:36:35;;;;;;;3.85;0.90;;;;;;;;;;4993379;28;20274;-67
2022/11/08 02:39:00;;;;;;;1.83;0.67;;;;;;;;;;4986259;28;20482;-68
2022/11/08 02:41:25;;;;;;;3.63;1.42;;;;;;;;;;4994014;28;20303;-68
2022/11/08 02:43:50;;;;;;;7.97;1.30;;;;;;;;;;4987577;28;20023;-67
2022/11/08 02:46:16;;;;;;;4.73;1.10;;;;;;;;;;4991736;28;20796;-68
2022/11/08 02:48:41;;;;;;;2.83;0.63;;;;;;;;;;4993506;28;20265;-66
2022/11/08 02:51:06;;;;;;;6.37;0.87;;;;;;;;;;4996350;28;20342;-68
2022/11/08 02:53:31;;;;;;;0.83;0.60;;;;;;;;;;4989838;28;20740;-69
2022/11/08 02:55:56;;;;;;;3.30;1.27;;;;;;;;;;4994068;28;20588;-69
2022/11/08 02:58:22;;;;;;;9.23;1.00;;;;;;;;;;4993550;28;20034;-69
2022/11/08 03:00:47;;;;;;;4.15;1.65;;;;;;;;;;4990290;28;20296;-66
2022/11/08 03:03:12;;;;;;;6.25;1.17;;;;;;;;;;4992798;28;20022;-66
2022/11/08 03:05:38;;;;;;;4.82;1.90;;;;;;;;;;4993850;28;20030;-66
2022/11/08 03:08:03;;;;;;;8.32;1.15;;;;;;;;;;4987931;28;20546;-68
2022/11/08 03:10:28;;;;;;;6.30;1.27;;;;;;;;;;4987001;28;20018;-71
2022/11/08 03:12:57;;;;;;;5.18;0.93;;;;;;;;;;4985570;28;21103;-67
2022/11/08 03:15:23;;;;;;;11.65;2.00;;;;;;;;;;4995513;28;20029;-71
2022/11/08 03:17:48;;;;;;;4.20;0.95;;;;;;;;;;4990159;28;20033;-66
2022/11/08 03:20:13;;;;;;;1.50;0.87;;;;;;;;;;4994175;28;20058;-70
2022/11/08 03:22:38;;;;;;;1.07;0.43;;;;;;;;;;4988597;28;20299;-66
2022/11/08 03:25:03;;;;;;;5.28;0.98;;;;;;;;;;4993318;28;20769;-72
2022/11/08 03:27:29;;;;;;;4.70;0.98;;;;;;;;;;4986747;28;20060;-66
2022/11/08 03:29:54;;;;;;;1.10;0.70;;;;;;;;;;4988877;28;20030;-68
2022/11/08 03:32:19;;;;;;;2.20;0.80;;;;;;;;;;4984134;28;20787;-66
2022/11/08 03:34:44;;;;;;;2.93;1.27;;;;;;;;;;4988876;28;20343;-68
2022/11/08 03:37:09;;;;;;;0.80;0.77;;;;;;;;;;4989259;28;20277;-66
2022/11/08 03:39:35;;;;;;;10.43;1.60;;;;;;;;;;4990015;28;20026;-67
2022/11/08 03:42:02;;;;;;;4.68;1.05;;;;;;;;;;4988258;28;20285;-69
2022/11/08 03:44:30;;;;;;;4.50;0.93;;;;;;;;;;4992788;28;20410;-67
2022/11/08 03:46:56;;;;;;;1.98;0.80;;;;;;;;;;4988461;28;20075;-70
2022/11/08 03:49:21;;;;;;;3.17;0.95;;;;;;;;;;4982936;28;20019;-68
2022/11/08 03:51:46;;;;;;;5.20;1.07;;;;;;;;;;4981521;28;20601;-66
2022/11/08 03:54:11;;;;;;;5.60;1.57;;;;;;;;;;4993335;28;20784;-69
2022/11/08 03:56:37;;;;;;;2.22;1.20;;;;;;;;;;4984536;28;20273;-67
2022/11/08 03:59:02;;;;;;;5.28;1.15;;;;;;;;;;4984980;28;20034;-66
2022/11/08 04:01:27;;;;;;;2.15;1.17;;;;;;;;;;4986180;28;20025;-71
2022/11/08 04:03:52;;;;;;;2.60;1.30;;;;;;;;;;4981753;28;20202;-69
2022/11/08 04:06:18;;;;;;;13.80;2.17;;;;;;;;;;4987977;28;20280;-66
2022/11/08 04:08:43;;;;;;;5.90;1.10;;;;;;;;;;4979102;28;20026;-69
2022/11/08 04:16:36;;;;;;;10.35;1.48;;;;;;;;;;4991523;28;20504;-67
2022/11/08 04:21:49;;;;;;;6.03;1.20;;;;;;;;;;4987477;28;20114;-66
2022/11/08 04:24:14;;;;;;;3.13;1.25;;;;;;;;;;4995544;28;20019;-66
2022/11/08 04:26:39;;;;;;;5.65;0.93;;;;;;;;;;4986306;28;20030;-69
2022/11/08 04:29:05;;;;;;;4.22;1.38;;;;;;;;;;4988371;28;20298;-66
2022/11/08 04:31:30;;;;;;;7.63;1.98;;;;;;;;;;4983666;28;20032;-67
2022/11/08 04:33:55;;;;;;;8.30;1.20;;;;;;;;;;5012758;23;20344;-70
2022/11/08 04:36:20;;;;;;;6.53;1.48;;;;;;;;;;5005197;28;20269;-70
2022/11/08 04:38:46;;;;;;;14.13;2.07;;;;;;;;;;5003013;28;20022;-70
2022/11/08 04:41:12;;;;;;;3.22;1.17;;;;;;;;;;5005419;28;20375;-70
2022/11/08 04:43:37;;;;;;;6.88;2.03;;;;;;;;;;5006902;28;20018;-70
2022/11/08 04:46:04;;;;;;;6.45;1.27;;;;;;;;;;5005871;28;20105;-70
2022/11/08 04:48:30;;;;;;;4.43;1.65;;;;;;;;;;5005479;28;20114;-70
2022/11/08 04:50:59;;;;;;;6.05;1.92;;;;;;;;;;5005019;28;20033;-70
2022/11/08 04:53:25;;;;;;;6.63;1.80;;;;;;;;;;5006291;28;20049;-70
2022/11/08 04:55:50;;;;;;;4.25;1.25;;;;;;;;;;5005156;28;20534;-70
2022/11/08 04:58:15;;;;;;;5.78;2.25;;;;;;;;;;5019626;28;20552;-69
2022/11/08 05:00:40;;;;;;;9.93;2.20;;;;;;;;;;5008277;28;20033;-67
2022/11/08 05:03:05;;;;;;;1.63;0.90;;;;;;;;;;5015460;28;20298;-67
2022/11/08 05:05:30;;;;;;;5.97;1.83;;;;;;;;;;5002658;28;20764;-67
2022/11/08 05:07:56;;;;;;;17.20;2.77;;;;;;;;;;5002904;28;20026;-67
2022/11/08 05:10:21;;;;;;;4.13;1.40;;;;;;;;;;5007136;28;20312;-67
2022/11/08 05:12:46;;;;;;;6.70;1.17;;;;;;;;;;5007608;28;20559;-67
2022/11/08 05:15:11;;;;;;;7.60;1.97;;;;;;;;;;5006668;28;20466;-66
2022/11/08 05:17:36;;;;;;;1.73;1.40;;;;;;;;;;5003579;28;20783;-69
2022/11/08 05:25:31;;;;;;;7.65;1.88;;;;;;;;;;5008372;28;20248;-67
2022/11/08 05:27:56;;;;;;;2.60;1.23;;;;;;;;;;5011433;28;20049;-67
2022/11/08 05:30:21;;;;;;;6.33;1.30;;;;;;;;;;5010316;28;20029;-67
2022/11/08 05:32:48;;;;;;;9.40;2.10;;;;;;;;;;4998842;28;20783;-68
2022/11/08 05:35:14;;;;;;;2.80;1.23;;;;;;;;;;5007222;28;20324;-67
2022/11/08 05:37:39;;;;;;;4.55;0.90;;;;;;;;;;5008446;28;20049;-67
2022/11/08 05:40:05;;;;;;;5.63;1.42;;;;;;;;;;5006469;28;20108;-68
2022/11/08 05:42:30;;;;;;;2.42;1.15;;;;;;;;;;5009167;28;20049;-67
2022/11/08 05:44:55;;;;;;;7.03;2.30;;;;;;;;;;5008541;28;20022;-67
2022/11/08 05:47:20;;;;;;;11.30;2.00;;;;;;;;;;5003651;28;20276;-67
2022/11/08 05:49:45;;;;;;;7.27;1.53;;;;;;;;;;5001588;28;20776;-67
2022/11/08 05:52:11;;;;;;;6.53;2.00;;;;;;;;;;5004749;28;20285;-67
2022/11/08 05:54:36;;;;;;;6.20;1.80;;;;;;;;;;5002204;28;20784;-67
2022/11/08 05:57:01;;;;;;;3.22;1.05;;;;;;;;;;5009945;28;20275;-67
2022/11/08 05:59:26;;;;;;;2.90;1.23;;;;;;;;;;5009326;28;20052;-67
2022/11/08 06:01:51;;;;;;;2.38;1.10;;;;;;;;;;5001558;28;20352;-67
2022/11/08 06:04:16;;;;;;;2.53;1.30;;;;;;;;;;5006104;28;20556;-67
2022/11/08 06:06:42;;;;;;;5.35;1.50;;;;;;;;;;5005313;28;20272;-67
2022/11/08 06:09:07;;;;;;;2.93;1.00;;;;;;;;;;5001732;28;20299;-68
2022/11/08 06:11:32;;;;;;;7.55;1.75;;;;;;;;;;5005320;28;20273;-68
2022/11/08 06:13:57;;;;;;;4.45;1.38;;;;;;;;;;4999497;28;20117;-69
2022/11/08 06:16:23;;;;;;;5.37;1.07;;;;;;;;;;5002056;28;20079;-68
2022/11/08 06:18:49;;;;;;;3.45;1.80;;;;;;;;;;4997682;28;20301;-68
2022/11/08 06:21:15;;;;;;;2.45;0.85;;;;;;;;;;5004105;28;20397;-68
2022/11/08 06:23:40;;;;;;;8.20;1.40;;;;;;;;;;5003569;28;20026;-68
2022/11/08 06:26:06;;;;;;;1.50;0.70;;;;;;;;;;5000553;28;20049;-69
2022/11/08 06:28:31;;;;;;;7.90;1.50;;;;;;;;;;5010125;28;20026;-68
2022/11/08 06:31:00;;;;;;;2.20;0.60;;;;;;;;;;5002662;28;20062;-68
2022/11/08 06:33:25;;;;;;;3.22;1.02;;;;;;;;;;4998383;28;20304;-68
2022/11/08 06:35:50;;;;;;;2.88;1.35;;;;;;;;;;5000916;28;20393;-69
2022/11/08 06:38:16;;;;;;;3.42;0.88;;;;;;;;;;4999775;28;20080;-69
2022/11/08 06:40:41;;;;;;;5.80;1.15;;;;;;;;;;4997390;28;20080;-69
2022/11/08 06:43:08;;;;;;;1.25;0.60;;;;;;;;;;5000105;28;20068;-69
2022/11/08 06:45:35;;;;;;;5.20;1.15;;;;;;;;;;5002644;28;20401;-69
2022/11/08 06:48:01;;;;;;;15.48;2.15;;;;;;;;;;5003277;28;20053;-69
2022/11/08 06:50:27;;;;;;;4.13;1.45;;;;;;;;;;5003818;28;20029;-69
2022/11/08 06:52:59;;;;;;;3.88;1.02;;;;;;;;;;5000126;28;20077;-68
2022/11/08 06:55:24;;;;;;;2.10;1.20;;;;;;;;;;5002380;28;20052;-69
2022/11/08 06:57:49;;;;;;;2.40;0.68;;;;;;;;;;5011931;28;20041;-69
2022/11/08 07:00:15;;;;;;;4.97;1.15;;;;;;;;;;5014973;28;20034;-68
2022/11/08 07:02:43;;;;;;;2.33;0.70;;;;;;;;;;5008742;28;20315;-69
2022/11/08 07:05:08;;;;;;;5.95;1.65;;;;;;;;;;5007858;28;20077;-69
2022/11/08 07:07:33;;;;;;;5.72;1.50;;;;;;;;;;5010252;28;20600;-68
2022/11/08 07:09:58;;;;;;;0.63;0.40;;;;;;;;;;5009737;28;20037;-69
2022/11/08 07:12:23;;;;;;;3.70;1.77;;;;;;;;;;5002702;28;20021;-68
2022/11/08 07:14:49;;;;;;;1.40;0.70;;;;;;;;;;5008582;28;20615;-69
2022/11/08 07:17:14;;;;;;;4.23;1.27;;;;;;;;;;5006837;28;20275;-68
2022/11/08 07:19:40;;;;;;;1.48;0.75;;;;;;;;;;5008235;28;20335;-68
2022/11/08 07:22:05;;;;;;;9.52;1.17;;;;;;;;;;5002197;28;20109;-69
2022/11/08 07:24:30;;;;;;;3.15;1.45;;;;;;;;;;5007765;28;20113;-68
2022/11/08 07:26:55;;;;;;;5.10;1.30;;;;;;;;;;5010443;28;20048;-69
2022/11/08 07:29:20;;;;;;;1.27;0.70;;;;;;;;;;5018019;28;20257;-69
2022/11/08 07:31:46;;;;;;;2.73;1.27;;;;;;;;;;5006919;28;20360;-68
2022/11/08 07:34:11;;;;;;;4.75;1.40;;;;;;;;;;5009552;28;20346;-69
2022/11/08 07:36:36;;;;;;;5.10;1.25;;;;;;;;;;5016243;28;20247;-68
2022/11/08 07:39:01;;;;;;;0.67;0.60;;;;;;;;;;5018624;28;20014;-69
2022/11/08 07:41:26;;;;;;;2.13;0.60;;;;;;;;;;5010196;28;20642;-69
2022/11/08 07:43:51;;;;;;;2.57;1.67;;;;;;;;;;5014843;28;20462;-69
2022/11/08 07:46:17;;;;;;;3.80;1.10;;;;;;;;;;5003283;28;20312;-68
2022/11/08 07:48:42;;;;;;;5.05;1.50;;;;;;;;;;5006581;28;20276;-69
2022/11/08 07:51:07;;;;;;;0.53;0.53;;;;;;;;;;5004089;28;20033;-69
2022/11/08 07:53:32;;;;;;;3.97;1.23;;;;;;;;;;5007236;28;20280;-68
2022/11/08 07:55:57;;;;;;;5.67;1.40;;;;;;;;;;5009267;28;20264;-71
2022/11/08 07:58:23;;;;;;;4.25;1.08;;;;;;;;;;5008762;28;20280;-69
2022/11/08 08:00:48;;;;;;;6.55;1.30;;;;;;;;;;5002329;28;20295;-69
2022/11/08 08:03:14;;;;;;;8.40;1.80;;;;;;;;;;5008573;28;20219;-69
2022/11/08 08:05:41;;;;;;;5.85;1.25;;;;;;;;;;5004987;28;20026;-69
2022/11/08 08:08:06;;;;;;;2.78;0.63;;;;;;;;;;5008030;28;20506;-69
2022/11/08 08:10:32;;;;;;;1.42;0.60;;;;;;;;;;5007358;28;20030;-69
2022/11/08 08:12:58;;;;;;;3.25;0.90;;;;;;;;;;5000231;28;20103;-68
2022/11/08 08:15:23;;;;;;;2.30;0.60;;;;;;;;;;5000581;28;20025;-69
2022/11/08 08:17:48;;;;;;;2.05;0.73;;;;;;;;;;5003708;28;20038;-69
2022/11/08 08:20:14;;;;;;;2.93;1.07;;;;;;;;;;5005260;28;20478;-68
2022/11/08 08:22:43;;;;;;;3.92;1.02;;;;;;;;;;5001326;28;20280;-69
2022/11/08 08:25:08;;;;;;;5.53;1.50;;;;;;;;;;5001138;28;20019;-69
2022/11/08 08:27:34;;;;;;;1.50;0.85;;;;;;;;;;5009864;28;20036;-68
2022/11/08 08:29:59;;;;;;;1.75;0.85;;;;;;;;;;5007751;28;20022;-69
2022/11/08 08:32:24;;;;;;;7.13;1.17;;;;;;;;;;5011334;28;20030;-68
2022/11/08 08:34:49;;;;;;;2.43;1.00;;;;;;;;;;5006789;28;21263;-69
2022/11/08 08:37:16;;;;;;;1.77;1.00;;;;;;;;;;5012290;28;20302;-68
2022/11/08 08:39:41;;;;;;;5.22;0.93;;;;;;;;;;5003936;28;20288;-68
2022/11/08 08:42:06;;;;;;;6.60;1.07;;;;;;;;;;5008128;28;20079;-69
2022/11/08 08:44:31;;;;;;;2.33;0.80;;;;;;;;;;5007703;28;20277;-69
2022/11/08 08:46:56;;;;;;;4.25;0.80;;;;;;;;;;5005036;28;20018;-69
2022/11/08 08:49:21;;;;;;;1.13;0.40;;;;;;;;;;5008741;28;20099;-69
2022/11/08 08:51:47;;;;;;;4.83;1.23;;;;;;;;;;5004873;28;20293;-69
2022/11/08 08:54:13;;;;;;;3.20;1.17;;;;;;;;;;5010832;28;20363;-68
2022/11/08 08:56:38;;;;;;;2.65;1.00;;;;;;;;;;5001848;28;20654;-69
2022/11/08 08:59:04;;;;;;;7.88;1.33;;;;;;;;;;5002220;28;20112;-69
2022/11/08 09:01:29;;;;;;;2.70;1.00;;;;;;;;;;5006106;28;20037;-69
2022/11/08 09:03:54;;;;;;;5.97;1.65;;;;;;;;;;5007794;28;20306;-69
2022/11/08 09:06:19;;;;;;;3.30;1.10;;;;;;;;;;5002804;28;20034;-68
2022/11/08 09:08:44;;;;;;;3.92;0.90;;;;;;;;;;5009676;28;20105;-69
2022/11/08 09:11:10;;;;;;;6.40;0.80;;;;;;;;;;5007647;28;20060;-69
2022/11/08 09:13:35;;;;;;;2.40;0.95;;;;;;;;;;5000932;28;20273;-68
2022/11/08 09:16:01;;;;;;;2.83;0.97;;;;;;;;;;5004970;28;20116;-69
2022/11/08 09:18:26;;;;;;;1.55;0.85;;;;;;;;;;5006314;28;20320;-69
2022/11/08 09:20:54;;;;;;;1.88;0.90;;;;;;;;;;5009537;28;20057;-68
2022/11/08 09:23:19;;;;;;;6.82;0.85;;;;;;;;;;5017560;28;20420;-69
2022/11/08 09:25:45;;;;;;;9.15;1.50;;;;;;;;;;5005090;28;20117;-69
2022/11/08 09:28:10;;;;;;;2.47;0.60;;;;;;;;;;5007191;28;20030;-69
2022/11/08 09:30:35;;;;;;;6.28;1.10;;;;;;;;;;5013694;28;20671;-69
2022/11/08 09:33:00;;;;;;;1.37;0.87;;;;;;;;;;5004762;28;20036;-69
2022/11/08 09:35:26;;;;;;;2.78;0.63;;;;;;;;;;5008403;28;20626;-69
2022/11/08 09:37:51;;;;;;;1.70;0.68;;;;;;;;;;5008192;28;20109;-69
2022/11/08 09:40:19;;;;;;;3.13;1.00;;;;;;;;;;5006641;28;20037;-69
2022/11/08 09:43:01;;;;;;;4.95;1.20;;;;;;;;;;5006434;28;20022;-69
2022/11/08 09:45:30;;;;;;;2.42;0.90;;;;;;;;;;5009601;28;20026;-69
2022/11/08 09:48:01;;;;;;;6.82;0.95;;;;;;;;;;5002872;28;20018;-69
2022/11/08 09:50:26;;;;;;;;;;;;;;;;;;5002980;28;20036;-69
2022/11/08 09:52:56;;;;;;;22.27;1.38;;;;;;;;;;5008227;28;20152;-69
2022/11/08 09:55:34;;;;;;;3.38;0.90;;;;;;;;;;5003055;28;20296;-69
2022/11/08 09:58:14;;;;;;;1.10;0.50;;;;;;;;;;5000771;28;20030;-68
2022/11/08 10:00:40;;;;;;;0.65;0.45;;;;;;;;;;5008391;28;20049;-69
2022/11/08 10:03:10;;;;;;;3.28;1.10;;;;;;;;;;5004615;28;20103;-69
2022/11/08 10:05:39;;;;;;;0.98;0.40;;;;;;;;;;5007272;28;20237;-69
2022/11/08 10:08:20;;;;;;;2.97;0.93;;;;;;;;;;5015263;28;20156;-68
2022/11/08 10:11:04;;;;;;;1.77;1.10;;;;;;;;;;5005490;28;20549;-69
2022/11/08 10:13:36;;;;;;;0.57;0.30;;;;;;;;;;5006798;28;20034;-69
2022/11/08 10:16:10;;;;;;;1.60;0.85;;;;;;;;;;5001960;28;20041;-69
2022/11/08 10:18:41;;;;;;;3.03;0.80;;;;;;;;;;5003865;28;21485;-68
2022/11/08 10:21:24;;;;;;;1.05;0.70;;;;;;;;;;5008872;28;20026;-71
2022/11/08 10:23:55;;;;;;;2.08;0.68;;;;;;;;;;5012277;28;20056;-75
2022/11/08 10:26:23;;;;;;;1.38;0.77;;;;;;;;;;5012648;28;20454;-70
2022/11/08 10:28:56;;;;;;;1.08;0.73;;;;;;;;;;5006717;28;20032;-67
2022/11/08 10:31:21;;;;;;;1.70;0.80;;;;;;;;;;5007723;28;20018;-67
2022/11/08 10:39:09;;;;;;;3.35;1.23;;;;;;;;;;4961812;28;20023;-88
2022/11/08 10:44:10;;;;;;;9.60;1.33;;;;;;;;;;4970068;28;20495;-67
2022/11/08 10:47:02;;;;;;;3.00;0.75;;;;;;;;;;4970215;28;20038;-67
2022/11/08 10:49:41;;;;;;;3.17;1.10;;;;;;;;;;4964731;28;20039;-70
2022/11/08 10:52:16;;;;;;;1.58;0.93;;;;;;;;;;4963482;28;20126;-67
2022/11/08 10:54:43;;;;;;;2.60;1.27;;;;;;;;;;4971429;28;20022;-67
2022/11/08 10:57:09;;;;;;;1.00;0.35;;;;;;;;;;4965324;28;20023;-67
2022/11/08 10:59:35;;;;;;;2.80;1.17;;;;;;;;;;4968942;28;20114;-69
2022/11/08 11:02:00;;;;;;;3.05;1.15;;;;;;;;;;4965183;28;20019;-68
2022/11/08 11:04:26;;;;;;;3.05;1.17;;;;;;;;;;4969345;28;20486;-69
2022/11/08 11:06:52;;;;;;;7.97;1.92;;;;;;;;;;4968123;28;20391;-68
2022/11/08 11:09:18;;;;;;;4.40;1.85;;;;;;;;;;4970637;28;20027;-69
2022/11/08 11:11:44;;;;;;;6.03;1.30;;;;;;;;;;4966588;28;20023;-69
2022/11/08 11:14:14;;;;;;;3.60;1.35;;;;;;;;;;4966565;28;20023;-69
2022/11/08 11:16:58;;;;;;;4.43;1.00;;;;;;;;;;4965969;28;20093;-66
2022/11/08 11:19:24;;;;;;;1.25;0.73;;;;;;;;;;4966673;28;20034;-68
2022/11/08 11:21:54;;;;;;;3.30;0.88;;;;;;;;;;4968546;28;20388;-68
2022/11/08 11:24:19;;;;;;;1.58;0.60;;;;;;;;;;4973927;28;20471;-68
2022/11/08 11:26:47;;;;;;;4.85;0.70;;;;;;;;;;4974746;28;20032;-69
2022/11/08 11:29:35;;;;;;;1.73;0.70;;;;;;;;;;4971758;28;20019;-68
2022/11/08 11:32:39;;;;;;;4.47;1.70;;;;;;;;;;4966515;28;20019;-69
2022/11/08 11:35:05;;;;;;;1.83;0.85;;;;;;;;;;4945497;28;20054;-67
2022/11/08 11:37:39;;;;;;;1.35;0.73;;;;;;;;;;4948182;28;20588;-69
2022/11/08 11:40:10;;;;;;;1.73;0.88;;;;;;;;;;4960954;28;20049;-68
2022/11/08 11:42:44;;;;;;;3.92;0.77;;;;;;;;;;4968269;28;20542;-69
2022/11/08 11:45:15;;;;;;;4.15;1.40;;;;;;;;;;4965695;28;20464;-68
2022/11/08 11:47:46;;;;;;;3.70;1.33;;;;;;;;;;4968823;28;20034;-67
2022/11/08 11:50:14;;;;;;;3.10;0.80;;;;;;;;;;4969587;28;20038;-69
2022/11/08 11:52:39;;;;;;;4.20;1.33;;;;;;;;;;4968077;28;20475;-69
2022/11/08 11:55:05;;;;;;;6.53;1.40;;;;;;;;;;4965956;28;20134;-69
2022/11/08 11:57:36;;;;;;;3.20;0.70;;;;;;;;;;4969033;28;20279;-66
2022/11/08 12:00:04;;;;;;;3.85;0.88;;;;;;;;;;4963237;28;20047;-67
2022/11/08 12:02:48;;;;;;;6.93;1.00;;;;;;;;;;4965823;28;20102;-67
2022/11/08 12:05:31;;;;;;;3.10;1.33;;;;;;;;;;4966525;28;20030;-69
2022/11/08 12:08:15;;;;;;;2.15;1.08;;;;;;;;;;4966248;28;20097;-69
2022/11/08 12:10:58;;;;;;;2.65;1.00;;;;;;;;;;4966588;28;20026;-68
2022/11/08 12:13:43;;;;;;;1.38;0.77;;;;;;;;;;4965058;28;20594;-69
2022/11/08 12:16:24;;;;;;;4.95;1.60;;;;;;;;;;4955429;28;20038;-66
2022/11/08 12:18:49;;;;;;;25.02;1.42;;;;;;;;;;4967775;28;20044;-70
2022/11/08 12:21:22;;;;;;;8.38;1.40;;;;;;;;;;4971239;28;20483;-68
2022/11/08 12:24:07;;;;;;;4.82;0.88;;;;;;;;;;4968832;28;20037;-68
2022/11/08 12:26:52;;;;;;;3.10;1.00;;;;;;;;;;4955969;28;20039;-69
2022/11/08 12:29:21;;;;;;;4.32;1.23;;;;;;;;;;4975472;28;20050;-67
2022/11/08 12:31:49;;;;;;;13.43;1.58;;;;;;;;;;4966268;28;20114;-68
2022/11/08 12:34:22;;;;;;;9.32;1.80;;;;;;;;;;4965092;28;20085;-68
2022/11/08 12:36:47;;;;;;;7.03;1.25;;;;;;;;;;4965667;28;20029;-69
2022/11/08 12:39:24;;;;;;;5.85;1.55;;;;;;;;;;4962407;28;20030;-68
2022/11/08 12:41:57;;;;;;;3.38;0.88;;;;;;;;;;4965344;28;20027;-69
2022/11/08 12:44:45;;;;;;;2.00;1.42;;;;;;;;;;4964248;28;20038;-68
2022/11/08 12:47:18;;;;;;;10.25;1.05;;;;;;;;;;4964378;28;20007;-69
2022/11/08 12:50:01;;;;;;;7.63;1.45;;;;;;;;;;4966303;28;20455;-69
2022/11/08 12:52:27;;;;;;;1.15;0.70;;;;;;;;;;4962565;28;20023;-67
2022/11/08 12:55:00;;;;;;;1.08;0.60;;;;;;;;;;4962432;28;20376;-69
2022/11/08 12:57:30;;;;;;;3.90;1.35;;;;;;;;;;4968641;28;20026;-68
2022/11/08 13:00:01;;;;;;;4.50;1.48;;;;;;;;;;4966786;28;20036;-69
2022/11/08 13:02:29;;;;;;;3.00;1.35;;;;;;;;;;4963087;28;20023;-69
2022/11/08 13:05:01;;;;;;;3.75;1.73;;;;;;;;;;4965144;28;20040;-68
2022/11/08 13:07:35;;;;;;;5.35;2.72;;;;;;;;;;4964955;28;20035;-68
2022/11/08 13:10:07;;;;;;;6.28;2.30;;;;;;;;;;4962278;28;20494;-69
2022/11/08 13:12:49;;;;;;;1.60;1.15;;;;;;;;;;4968848;28;20109;-67
2022/11/08 13:15:16;;;;;;;2.58;0.85;;;;;;;;;;4969703;28;20479;-68
2022/11/08 13:18:01;;;;;;;1.95;1.20;;;;;;;;;;4970351;28;20475;-69
2022/11/08 13:20:36;;;;;;;3.55;0.93;;;;;;;;;;4968479;28;20106;-68
2022/11/08 13:23:05;;;;;;;1.23;0.80;;;;;;;;;;4969333;28;20019;-69
2022/11/08 13:25:32;;;;;;;3.75;0.98;;;;;;;;;;4970401;28;20023;-68
2022/11/08 13:27:57;;;;;;;6.63;1.33;;;;;;;;;;4973865;28;20446;-68
2022/11/08 13:30:22;;;;;;;3.50;1.23;;;;;;;;;;4973098;28;20157;-66
2022/11/08 13:32:50;;;;;;;4.05;1.67;;;;;;;;;;4971315;28;20026;-69
2022/11/08 13:35:15;;;;;;;4.72;1.33;;;;;;;;;;4966896;28;20172;-68
2022/11/08 13:37:59;;;;;;;5.25;1.42;;;;;;;;;;4969630;28;20022;-66
2022/11/08 13:40:30;;;;;;;2.65;1.10;;;;;;;;;;4967144;28;20113;-68
2022/11/08 13:42:56;;;;;;;5.30;0.98;;;;;;;;;;4963447;28;20023;-66
2022/11/08 13:45:23;;;;;;;3.20;1.00;;;;;;;;;;4968033;28;20467;-69
2022/11/08 13:47:52;;;;;;;0.90;0.65;;;;;;;;;;4966720;28;20047;-68
2022/11/08 13:50:26;;;;;;;6.03;1.33;;;;;;;;;;4967466;28;20037;-66
2022/11/08 13:53:02;;;;;;;4.63;2.08;;;;;;;;;;4969615;28;20042;-68
2022/11/08 13:55:42;;;;;;;4.90;1.40;;;;;;;;;;4974238;28;20454;-69
2022/11/08 13:58:07;;;;;;;;;;;;;;;;;;4967526;28;20050;-69
2022/11/08 14:00:40;;;;;;;5.05;1.92;;;;;;;;;;4970159;28;19922;-69
2022/11/08 14:03:25;;;;;;;3.90;1.00;;;;;;;;;;4968055;28;20033;-66
2022/11/08 14:05:53;;;;;;;5.65;1.52;;;;;;;;;;4968543;28;20027;-68
2022/11/08 14:08:19;;;;;;;4.78;2.00;;;;;;;;;;4969219;28;20033;-68
2022/11/08 14:11:05;;;;;;;1.48;0.68;;;;;;;;;;4973891;28;20085;-69
2022/11/08 14:13:34;;;;;;;3.25;1.08;;;;;;;;;;4942976;28;20159;-68
2022/11/08 14:16:02;;;;;;;3.20;1.42;;;;;;;;;;4972772;28;20038;-68
2022/11/08 14:18:31;;;;;;;3.65;1.50;;;;;;;;;;4968355;28;20038;-69
2022/11/08 14:20:57;;;;;;;4.80;1.20;;;;;;;;;;4970430;28;20435;-68
2022/11/08 14:23:27;;;;;;;3.85;1.38;;;;;;;;;;4973908;28;20027;-67
2022/11/08 14:25:54;;;;;;;3.20;1.23;;;;;;;;;;4974771;28;20305;-67
2022/11/08 14:28:27;;;;;;;3.35;1.55;;;;;;;;;;4975757;28;20058;-69
2022/11/08 14:30:52;;;;;;;2.03;0.88;;;;;;;;;;4968375;28;20037;-67
2022/11/08 14:33:19;;;;;;;3.85;1.30;;;;;;;;;;4969419;28;20105;-69
2022/11/08 14:35:55;;;;;;;3.15;1.30;;;;;;;;;;4974574;28;20029;-66
2022/11/08 14:38:21;;;;;;;5.22;1.40;;;;;;;;;;4972415;28;20106;-69
2022/11/08 14:40:48;;;;;;;2.38;0.98;;;;;;;;;;4965256;28;20468;-68
2022/11/08 14:43:13;;;;;;;4.22;1.33;;;;;;;;;;4969852;28;20537;-67
2022/11/08 14:45:40;;;;;;;4.18;1.73;;;;;;;;;;4969467;28;20070;-69
2022/11/08 14:48:05;;;;;;;3.13;1.50;;;;;;;;;;4973733;28;20015;-67
2022/11/08 14:50:32;;;;;;;8.07;1.08;;;;;;;;;;4973000;28;20023;-69
2022/11/08 14:53:26;;;;;;;2.28;0.93;;;;;;;;;;4980642;28;20387;-69
2022/11/08 14:55:56;;;;;;;4.25;1.70;;;;;;;;;;4956527;28;20083;-68
2022/11/08 14:58:25;;;;;;;6.90;1.58;;;;;;;;;;4967254;28;20026;-68
2022/11/08 15:00:50;;;;;;;5.10;1.60;;;;;;;;;;4969621;28;20031;-69
2022/11/08 15:03:17;;;;;;;16.38;5.93;;;;;;;;;;4966162;28;20027;-68
2022/11/08 15:05:59;;;;;;;64.38;22.27;;;;;;;;;;4963780;28;20022;-68
2022/11/08 15:08:35;;;;;;;6.28;1.70;;;;;;;;;;4964319;28;20477;-68
2022/11/08 15:11:05;;;;;;;24.90;7.82;;;;;;;;;;4965930;28;20106;-68
2022/11/08 15:13:38;;;;;;;22.08;8.43;;;;;;;;;;4966418;28;20093;-67
2022/11/08 15:16:05;;;;;;;1.75;0.73;;;;;;;;;;4967729;28;20057;-69
2022/11/08 15:18:32;;;;;;;12.93;5.82;;;;;;;;;;4972728;28;20030;-69
2022/11/08 15:21:05;;;;;;;6.32;2.33;;;;;;;;;;4972184;28;20644;-69